Overview Statistics Trail Chart Weather Telemetry Raw packets
 

This is the latest recevied weather packets stored in our database for station/object NK7E-1. If no packets are shown the sender has not sent any weather packets the latest 10 day(s).

<< 2 3 4 5 6 7 8 >>
Time Temp. Humidity Pressure Rain* Wind** Luminosity Snow
1788547803 32.22° C 41% 1016.4 hPa 0 mm - - -
1788547202 33.33° C 41% 1016.5 hPa 0 mm - - -
1788546603 33.33° C 41% 1016.6 hPa 0 mm - - -
1788546002 32.22° C 45% 1016.7 hPa 0 mm - - -
1788545403 32.22° C 45% 1016.8 hPa 0 mm - - -
1788544802 32.22° C 48% 1017 hPa 0 mm - - -
1788544200 31.67° C 48% 1017.1 hPa 0 mm - - -
1788543601 31.67° C 49% 1017.3 hPa 0 mm - - -
1788543001 31.11° C 51% 1017.3 hPa 0 mm - - -
1788542401 30.56° C 53% 1017.4 hPa 0 mm - - -
1788541801 30.56° C 51% 1017.5 hPa 0 mm - - -
1788541203 30.56° C 53% 1017.6 hPa 0 mm - - -
1788540601 30° C 53% 1017.6 hPa 0 mm - - -
1788540001 30° C 54% 1017.5 hPa 0 mm - - -
1788539401 30° C 55% 1017.4 hPa 0 mm - - -
1788538801 29.44° C 57% 1017.4 hPa 0 mm - - -
1788538201 29.44° C 57% 1017.3 hPa 0 mm - - -
1788537601 28.89° C 59% 1017.3 hPa 0 mm - - -
1788537001 28.89° C 59% 1017.3 hPa 0 mm - - -
1788536401 28.33° C 62% 1017.3 hPa 0 mm - - -
1788535801 27.78° C 64% 1017.2 hPa 0 mm - - -
1788535221 27.78° C 64% 1017.3 hPa 0 mm - - -
1788534601 27.78° C 65% 1017.3 hPa 0 mm - - -
1788534001 27.22° C 66% 1017.3 hPa 0 mm - - -
1788533401 26.67° C 67% 1017.3 hPa 0 mm - - -

* Rain latest hour (hover to see other rain measurements)
** Current wind speed in m/s (hover to see current wind gust speed)